Rapid River, MI

7:01 PM EDT on September 03, 2015 (GMT -0400)
Schoolcraft County | | Change Station
CLOSE
Current Station
Airport
Location: Manistique,
Elevation: 686 ft
Nearby Weather Stations

Elev 686 ft 45.97 °N, 86.17 °W | Updated 7 minutes ago

Clear
Clear
77 °F
Feels Like 77 °F
N
6
Wind Variable Wind from ENE

Today
High -- | Low -- °F
--% Chance of Precip.
Yesterday
High -- | Low -- °F
Precip. -- in
7:10 AM 8:22 PM
Waning Gibbous, 66% visible
Pressure 29.94 in
Visibility 10.0 miles
Clouds Clear
Dew Point 62 °F
Humidity 61%
Rainfall 1.30 in
Snow Depth Not available.
UV 1 out of 12
Pollen 3.10 out of 12
Air Quality Not available.
Flu Activity Not available.
METAR KISQ 032254Z AUTO 07005KT 10SM CLR 25/17 A2994 RMK AO2 T02500169
Pressure 29.94 in
Visibility 10.0 miles
Clouds Clear
Dew Point 62 °F
Humidity 61%
Rainfall 1.30 in
Snow Depth Not available.
UV 1 out of 12
Pollen 3.10 out of 12
Air Quality Not available.
Flu Activity Not available.
METAR KISQ 032254Z AUTO 07005KT 10SM CLR 25/17 A2994 RMK AO2 T02500169

10-Day Weather Forecast

×

Almanac

Astronomy

Sep. 03, 2015 Rise Set
Actual Time
Civil Twilight
Nautical Twilight
Astronomical Twilight
Moon
Length of Visible Light
Length of Day
Tomorrow will be .
, % of the Moon is Illuminated

Today's Extremes

State Highs State Lows

Community

WunderPhotos

Upload Photos

1,852,058 photos uploaded!

WunderBlogs® & News

Nearby

Air Quality

  Air Quality AQ Index Pollutant
Not available.

Snow Depth

Station Depth Elevation

Earthquake Activity

City Distance Mag. Time & Date
Minimum magnitude displayed is 2.5.

Coastal Water Temperatures

Place Temperature

Stations

Nearby Weather Stations

Station Location Temp. Windchill Dew Point Humidity Wind Precip. Elev Updated Type